ICAO code: LHPR | IATA code: QGY | SITA: QGYAPXH | AFTN: LHPRZPZX

Időjárási adatok

METAR LHPR 280745Z AUTO 10010KT 1700 BR OVC002 05/05 Q0994 NOSIG=
TAF LHPR 280515Z 2806/2815 VRB03KT 3000 BR OVC010 TEMPO 2806/2809
1200 BR OVC002 PROB40 TEMPO 2806/2808 0600 FG OVC001 BECMG
2806/2809 12009KT BECMG 2809/2812 5000 -RA BR BKN012 OVC040=
Párásság
2021-11-28 07:40:00 UTC
Hőmérséklet
4.8 °C
 
Harmatpont
4.8 °C
 
Rel. páratartalom
100%
 
QNH
995.0 hPa
 
Szélsebesség
5.2 m/s
Max
6.9 m/s
Szélirány
100°
 
Csapadék (1 óra)
0.0 mm
 
Látótávolság
1772 m
 
RVR
>1500 m RWY29
 
1. felhőréteg mennyisége
8 octa
 
1. felhőréteg alapja
60 m